LOG26U EGAC-EGPD
Flight info
| Callsign | LOG26U |
|---|---|
| Flight time | 0h 48m |
| Altitude | 25000 |
| Route | MAGEE DCT BLACA P600 TRN DCT GRICE DCT FINDO P600 NAXIL |
| Aircraft | B462/M-SDFGIRWY/LB1 |
Departure
| Time | 2026-05-08 08:54 |
|---|---|
| Airport | George Best Belfast City Airport (EGAC) |
Arrival
| Time | 2026-05-08 09:43 |
|---|---|
| Airport | Aberdeen International Airport (EGPD) |
| Time | Latitude | Longitude | Altitude | Speed | Heading |
|---|---|---|---|---|---|
| 2026-05-08 08:24 | 54.61504 | -5.87149 | 12 ft | 0 kts | 156° |
| 2026-05-08 08:25 | 54.61498 | -5.87144 | 23 ft | 0 kts | 156° |
| 2026-05-08 08:43 | 54.61509 | -5.87152 | 22 ft | 4 kts | 154° |
| 2026-05-08 08:44 | 54.61532 | -5.87176 | 21 ft | 4 kts | 138° |
| 2026-05-08 08:44 | 54.61541 | -5.87209 | 22 ft | 4 kts | 58° |
| 2026-05-08 08:44 | 54.61535 | -5.87220 | 23 ft | 1 kts | 35° |
| 2026-05-08 08:44 | 54.61534 | -5.87220 | 23 ft | 0 kts | 35° |
| 2026-05-08 08:49 | 54.61544 | -5.87209 | 22 ft | 1 kts | 34° |
| 2026-05-08 08:49 | 54.61552 | -5.87199 | 24 ft | 2 kts | 36° |
| 2026-05-08 08:49 | 54.61569 | -5.87180 | 21 ft | 4 kts | 32° |
| 2026-05-08 08:49 | 54.61597 | -5.87145 | 21 ft | 6 kts | 36° |
| 2026-05-08 08:50 | 54.61635 | -5.87098 | 21 ft | 7 kts | 33° |
| 2026-05-08 08:50 | 54.61680 | -5.87047 | 21 ft | 8 kts | 33° |
| 2026-05-08 08:50 | 54.61738 | -5.86996 | 21 ft | 10 kts | 9° |
| 2026-05-08 08:50 | 54.61785 | -5.87051 | 20 ft | 10 kts | 305° |
| 2026-05-08 08:51 | 54.61828 | -5.87190 | 19 ft | 12 kts | 277° |
| 2026-05-08 08:51 | 54.61775 | -5.87298 | 18 ft | 12 kts | 214° |
| 2026-05-08 08:51 | 54.61701 | -5.87386 | 19 ft | 14 kts | 214° |
| 2026-05-08 08:51 | 54.61605 | -5.87501 | 15 ft | 19 kts | 214° |
| 2026-05-08 08:52 | 54.61491 | -5.87637 | 12 ft | 22 kts | 214° |
| 2026-05-08 08:52 | 54.61363 | -5.87786 | 14 ft | 23 kts | 214° |
| 2026-05-08 08:52 | 54.61232 | -5.87941 | 17 ft | 21 kts | 207° |
| 2026-05-08 08:52 | 54.61156 | -5.88036 | 19 ft | 8 kts | 4° |
| 2026-05-08 08:53 | 54.61170 | -5.88018 | 20 ft | 0 kts | 36° |
| 2026-05-08 08:53 | 54.61170 | -5.88017 | 20 ft | 0 kts | 36° |
| 2026-05-08 08:53 | 54.61266 | -5.87902 | 15 ft | 45 kts | 34° |
| 2026-05-08 08:53 | 54.61691 | -5.87392 | 18 ft | 100 kts | 34° |
| 2026-05-08 08:54 | 54.62373 | -5.86523 | 110 ft | 134 kts | 36° |
| 2026-05-08 08:54 | 54.63147 | -5.85536 | 541 ft | 139 kts | 33° |
| 2026-05-08 08:54 | 54.63965 | -5.84551 | 962 ft | 150 kts | 34° |
| 2026-05-08 08:54 | 54.64857 | -5.83552 | 1421 ft | 159 kts | 30° |
| 2026-05-08 08:55 | 54.65786 | -5.82521 | 1916 ft | 158 kts | 37° |
| 2026-05-08 08:55 | 54.66563 | -5.81234 | 2404 ft | 153 kts | 44° |
| 2026-05-08 08:55 | 54.67287 | -5.79907 | 2887 ft | 149 kts | 45° |
| 2026-05-08 08:55 | 54.68003 | -5.78608 | 3370 ft | 153 kts | 41° |
| 2026-05-08 08:56 | 54.68772 | -5.77268 | 3866 ft | 160 kts | 41° |
| 2026-05-08 08:56 | 54.69573 | -5.75864 | 4341 ft | 168 kts | 45° |
| 2026-05-08 08:56 | 54.70472 | -5.74405 | 4790 ft | 187 kts | 42° |
| 2026-05-08 08:56 | 54.71463 | -5.72796 | 5217 ft | 203 kts | 44° |
| 2026-05-08 08:57 | 54.72552 | -5.71019 | 5481 ft | 230 kts | 41° |
| 2026-05-08 08:57 | 54.73827 | -5.68962 | 5712 ft | 269 kts | 40° |
| 2026-05-08 08:57 | 54.75273 | -5.66671 | 6149 ft | 292 kts | 41° |
| 2026-05-08 08:57 | 54.76802 | -5.64284 | 7034 ft | 296 kts | 39° |
| 2026-05-08 08:58 | 54.78320 | -5.61890 | 8014 ft | 303 kts | 47° |
| 2026-05-08 08:58 | 54.79402 | -5.58757 | 8807 ft | 306 kts | 68° |
| 2026-05-08 08:58 | 54.80213 | -5.55317 | 9627 ft | 309 kts | 68° |
| 2026-05-08 08:58 | 54.81005 | -5.51824 | 10313 ft | 313 kts | 69° |
| 2026-05-08 08:59 | 54.81768 | -5.48257 | 10995 ft | 318 kts | 72° |
| 2026-05-08 08:59 | 54.82494 | -5.44596 | 11568 ft | 322 kts | 73° |
| 2026-05-08 08:59 | 54.83215 | -5.40895 | 12181 ft | 326 kts | 71° |
| 2026-05-08 08:59 | 54.83977 | -5.37149 | 12851 ft | 331 kts | 71° |
| 2026-05-08 09:00 | 54.84747 | -5.33357 | 13452 ft | 335 kts | 71° |
| 2026-05-08 09:00 | 54.85540 | -5.29518 | 14091 ft | 340 kts | 71° |
| 2026-05-08 09:00 | 54.86333 | -5.25686 | 14650 ft | 343 kts | 71° |
| 2026-05-08 09:00 | 54.87132 | -5.21748 | 15205 ft | 347 kts | 72° |
| 2026-05-08 09:01 | 54.87985 | -5.17806 | 15620 ft | 352 kts | 63° |
| 2026-05-08 09:01 | 54.89500 | -5.14467 | 16022 ft | 355 kts | 37° |
| 2026-05-08 09:01 | 54.91603 | -5.12244 | 16457 ft | 356 kts | 24° |
| 2026-05-08 09:01 | 54.93854 | -5.10387 | 16863 ft | 359 kts | 23° |
| 2026-05-08 09:02 | 54.96137 | -5.08575 | 17297 ft | 362 kts | 21° |
| 2026-05-08 09:02 | 54.98446 | -5.06786 | 17744 ft | 365 kts | 21° |
| 2026-05-08 09:02 | 55.00774 | -5.04946 | 18160 ft | 368 kts | 22° |
| 2026-05-08 09:02 | 55.03106 | -5.03049 | 18562 ft | 371 kts | 23° |
| 2026-05-08 09:03 | 55.05438 | -5.01096 | 18940 ft | 374 kts | 23° |
| 2026-05-08 09:03 | 55.07784 | -4.99094 | 19321 ft | 376 kts | 24° |
| 2026-05-08 09:03 | 55.10128 | -4.97037 | 19678 ft | 378 kts | 24° |
| 2026-05-08 09:03 | 55.12459 | -4.94974 | 20050 ft | 381 kts | 25° |
| 2026-05-08 09:04 | 55.14828 | -4.92881 | 20417 ft | 383 kts | 24° |
| 2026-05-08 09:04 | 55.17221 | -4.90803 | 20767 ft | 385 kts | 24° |
| 2026-05-08 09:04 | 55.19635 | -4.88718 | 21125 ft | 388 kts | 24° |
| 2026-05-08 09:04 | 55.22027 | -4.86637 | 21478 ft | 390 kts | 24° |
| 2026-05-08 09:05 | 55.24457 | -4.84476 | 21821 ft | 392 kts | 25° |
| 2026-05-08 09:05 | 55.26898 | -4.82311 | 22169 ft | 394 kts | 24° |
| 2026-05-08 09:05 | 55.29363 | -4.80162 | 22499 ft | 397 kts | 24° |
| 2026-05-08 09:05 | 55.31791 | -4.77835 | 22815 ft | 400 kts | 29° |
| 2026-05-08 09:06 | 55.34150 | -4.75204 | 23128 ft | 403 kts | 32° |
| 2026-05-08 09:06 | 55.36480 | -4.72416 | 23450 ft | 406 kts | 33° |
| 2026-05-08 09:06 | 55.38809 | -4.69565 | 23741 ft | 407 kts | 33° |
| 2026-05-08 09:06 | 55.41131 | -4.66687 | 24004 ft | 409 kts | 33° |
| 2026-05-08 09:07 | 55.43429 | -4.63815 | 24263 ft | 411 kts | 33° |
| 2026-05-08 09:07 | 55.45768 | -4.60909 | 24490 ft | 412 kts | 33° |
| 2026-05-08 09:07 | 55.48110 | -4.58019 | 24674 ft | 414 kts | 33° |
| 2026-05-08 09:07 | 55.50470 | -4.55092 | 24908 ft | 413 kts | 33° |
| 2026-05-08 09:08 | 55.52846 | -4.52159 | 25006 ft | 418 kts | 33° |
| 2026-05-08 09:08 | 55.55249 | -4.49230 | 25049 ft | 422 kts | 32° |
| 2026-05-08 09:08 | 55.57682 | -4.46269 | 25068 ft | 428 kts | 32° |
| 2026-05-08 09:08 | 55.60120 | -4.43282 | 25077 ft | 436 kts | 32° |
| 2026-05-08 09:09 | 55.62618 | -4.40207 | 25083 ft | 439 kts | 33° |
| 2026-05-08 09:09 | 55.65122 | -4.37103 | 25085 ft | 441 kts | 33° |
| 2026-05-08 09:09 | 55.67657 | -4.33979 | 25065 ft | 445 kts | 33° |
| 2026-05-08 09:09 | 55.70215 | -4.30828 | 25061 ft | 448 kts | 33° |
| 2026-05-08 09:10 | 55.72781 | -4.27658 | 25057 ft | 447 kts | 33° |
| 2026-05-08 09:10 | 55.75336 | -4.24503 | 25051 ft | 446 kts | 33° |
| 2026-05-08 09:10 | 55.77876 | -4.21359 | 25051 ft | 445 kts | 33° |
| 2026-05-08 09:10 | 55.80394 | -4.18250 | 25049 ft | 445 kts | 33° |
| 2026-05-08 09:11 | 55.82919 | -4.15085 | 25051 ft | 445 kts | 33° |
| 2026-05-08 09:11 | 55.85450 | -4.11873 | 25048 ft | 445 kts | 33° |
| 2026-05-08 09:11 | 55.87980 | -4.08698 | 25049 ft | 445 kts | 33° |
| 2026-05-08 09:11 | 55.90527 | -4.05534 | 25045 ft | 445 kts | 33° |
| 2026-05-08 09:12 | 55.93058 | -4.02359 | 25044 ft | 445 kts | 33° |
| 2026-05-08 09:12 | 55.95586 | -3.99142 | 25042 ft | 445 kts | 34° |
| 2026-05-08 09:12 | 55.98111 | -3.95932 | 25042 ft | 445 kts | 33° |
| 2026-05-08 09:12 | 56.00659 | -3.92743 | 25041 ft | 445 kts | 33° |
| 2026-05-08 09:13 | 56.03159 | -3.89589 | 25033 ft | 446 kts | 34° |
| 2026-05-08 09:13 | 56.05681 | -3.86374 | 25038 ft | 446 kts | 34° |
| 2026-05-08 09:13 | 56.08202 | -3.83147 | 25040 ft | 445 kts | 34° |
| 2026-05-08 09:13 | 56.10720 | -3.79923 | 25034 ft | 445 kts | 34° |
| 2026-05-08 09:14 | 56.13234 | -3.76720 | 25025 ft | 436 kts | 33° |
| 2026-05-08 09:14 | 56.15680 | -3.73650 | 24727 ft | 424 kts | 33° |
| 2026-05-08 09:14 | 56.18065 | -3.70623 | 24340 ft | 416 kts | 34° |
| 2026-05-08 09:14 | 56.20413 | -3.67635 | 23957 ft | 409 kts | 34° |
| 2026-05-08 09:15 | 56.22712 | -3.64715 | 23541 ft | 402 kts | 34° |
| 2026-05-08 09:15 | 56.24971 | -3.61802 | 23076 ft | 396 kts | 35° |
| 2026-05-08 09:15 | 56.27185 | -3.58919 | 22610 ft | 390 kts | 35° |
| 2026-05-08 09:15 | 56.29377 | -3.56094 | 22146 ft | 385 kts | 34° |
| 2026-05-08 09:16 | 56.31550 | -3.53319 | 21706 ft | 380 kts | 34° |
| 2026-05-08 09:16 | 56.33692 | -3.50585 | 21273 ft | 376 kts | 34° |
| 2026-05-08 09:16 | 56.35802 | -3.47844 | 20847 ft | 371 kts | 35° |
| 2026-05-08 09:16 | 56.37883 | -3.45120 | 20440 ft | 367 kts | 34° |
| 2026-05-08 09:17 | 56.39956 | -3.42448 | 20027 ft | 364 kts | 34° |
| 2026-05-08 09:17 | 56.42015 | -3.39806 | 19633 ft | 361 kts | 34° |
| 2026-05-08 09:17 | 56.44022 | -3.37193 | 19250 ft | 359 kts | 35° |
| 2026-05-08 09:17 | 56.46057 | -3.34590 | 18869 ft | 356 kts | 33° |
| 2026-05-08 09:18 | 56.48096 | -3.32043 | 18495 ft | 354 kts | 33° |
| 2026-05-08 09:18 | 56.50126 | -3.29523 | 18094 ft | 352 kts | 33° |
| 2026-05-08 09:18 | 56.52144 | -3.27027 | 17670 ft | 351 kts | 33° |
| 2026-05-08 09:18 | 56.54153 | -3.24545 | 17257 ft | 349 kts | 33° |
| 2026-05-08 09:19 | 56.56161 | -3.22073 | 16854 ft | 347 kts | 33° |
| 2026-05-08 09:19 | 56.58134 | -3.19645 | 16474 ft | 346 kts | 33° |
| 2026-05-08 09:19 | 56.60122 | -3.17200 | 16090 ft | 345 kts | 33° |
| 2026-05-08 09:19 | 56.62102 | -3.14765 | 15717 ft | 343 kts | 33° |
| 2026-05-08 09:20 | 56.64066 | -3.12318 | 15372 ft | 341 kts | 34° |
| 2026-05-08 09:20 | 56.65375 | -3.10666 | 15202 ft | 338 kts | 34° |
| 2026-05-08 09:20 | 56.67635 | -3.07806 | 15071 ft | 328 kts | 34° |
| 2026-05-08 09:20 | 56.69490 | -3.05487 | 15018 ft | 319 kts | 33° |
| 2026-05-08 09:21 | 56.71301 | -3.03241 | 14737 ft | 320 kts | 33° |
| 2026-05-08 09:21 | 56.73143 | -3.00947 | 14425 ft | 322 kts | 34° |
| 2026-05-08 09:22 | 56.83694 | -2.87608 | 12384 ft | 329 kts | 34° |
| 2026-05-08 09:23 | 56.85570 | -2.85216 | 12030 ft | 329 kts | 34° |
| 2026-05-08 09:23 | 56.87447 | -2.82818 | 11675 ft | 328 kts | 34° |
| 2026-05-08 09:23 | 56.89320 | -2.80427 | 11340 ft | 328 kts | 34° |
| 2026-05-08 09:23 | 56.91189 | -2.78043 | 10989 ft | 327 kts | 34° |
| 2026-05-08 09:24 | 56.93054 | -2.75662 | 10685 ft | 326 kts | 34° |
| 2026-05-08 09:24 | 56.94918 | -2.73286 | 10380 ft | 325 kts | 36° |
| 2026-05-08 09:24 | 56.96609 | -2.70536 | 10043 ft | 325 kts | 46° |
| 2026-05-08 09:24 | 56.98133 | -2.67479 | 9649 ft | 325 kts | 49° |
| 2026-05-08 09:25 | 56.99596 | -2.64386 | 9170 ft | 325 kts | 50° |
| 2026-05-08 09:25 | 57.01053 | -2.61205 | 8629 ft | 326 kts | 51° |
| 2026-05-08 09:25 | 57.02506 | -2.57998 | 8116 ft | 327 kts | 50° |
| 2026-05-08 09:25 | 57.03971 | -2.54789 | 7623 ft | 327 kts | 50° |
| 2026-05-08 09:26 | 57.05450 | -2.51601 | 7114 ft | 328 kts | 49° |
| 2026-05-08 09:26 | 57.06956 | -2.48451 | 6643 ft | 328 kts | 48° |
| 2026-05-08 09:26 | 57.08475 | -2.45330 | 6159 ft | 328 kts | 48° |
| 2026-05-08 09:26 | 57.09999 | -2.42214 | 5687 ft | 326 kts | 47° |
| 2026-05-08 09:27 | 57.11515 | -2.39107 | 5213 ft | 325 kts | 47° |
| 2026-05-08 09:27 | 57.13022 | -2.36018 | 4744 ft | 324 kts | 47° |
| 2026-05-08 09:27 | 57.14503 | -2.32981 | 4265 ft | 322 kts | 47° |
| 2026-05-08 09:27 | 57.15997 | -2.29921 | 3822 ft | 320 kts | 48° |
| 2026-05-08 09:28 | 57.17616 | -2.27156 | 3375 ft | 315 kts | 32° |
| 2026-05-08 09:28 | 57.19567 | -2.25475 | 3121 ft | 304 kts | 14° |
| 2026-05-08 09:28 | 57.21599 | -2.24959 | 3016 ft | 286 kts | 352° |
| 2026-05-08 09:28 | 57.23389 | -2.26072 | 2996 ft | 262 kts | 322° |
| 2026-05-08 09:29 | 57.24559 | -2.28429 | 3009 ft | 242 kts | 298° |
| 2026-05-08 09:29 | 57.25620 | -2.30757 | 2998 ft | 243 kts | 322° |
| 2026-05-08 09:29 | 57.27113 | -2.32223 | 3008 ft | 241 kts | 329° |
| 2026-05-08 09:29 | 57.28582 | -2.33692 | 2995 ft | 238 kts | 327° |
| 2026-05-08 09:30 | 57.30020 | -2.35188 | 3011 ft | 237 kts | 327° |
| 2026-05-08 09:30 | 57.31463 | -2.36657 | 2998 ft | 236 kts | 330° |
| 2026-05-08 09:30 | 57.33072 | -2.37245 | 2996 ft | 241 kts | 5° |
| 2026-05-08 09:30 | 57.34613 | -2.36050 | 3008 ft | 244 kts | 39° |
| 2026-05-08 09:31 | 57.35589 | -2.33535 | 3033 ft | 242 kts | 72° |
| 2026-05-08 09:31 | 57.35733 | -2.30503 | 3027 ft | 234 kts | 106° |
| 2026-05-08 09:31 | 57.35021 | -2.27910 | 3053 ft | 224 kts | 139° |
| 2026-05-08 09:31 | 57.33866 | -2.26013 | 3067 ft | 222 kts | 145° |
| 2026-05-08 09:32 | 57.32663 | -2.24181 | 2992 ft | 226 kts | 146° |
| 2026-05-08 09:32 | 57.31412 | -2.22369 | 2848 ft | 230 kts | 147° |
| 2026-05-08 09:32 | 57.30138 | -2.20646 | 2681 ft | 228 kts | 155° |
| 2026-05-08 09:32 | 57.28656 | -2.20014 | 2460 ft | 219 kts | 191° |
| 2026-05-08 09:33 | 57.27304 | -2.21160 | 2313 ft | 215 kts | 216° |
| 2026-05-08 09:33 | 57.25951 | -2.22398 | 2033 ft | 222 kts | 195° |
| 2026-05-08 09:33 | 57.24383 | -2.22501 | 1689 ft | 233 kts | 174° |
| 2026-05-08 09:33 | 57.22786 | -2.21668 | 1319 ft | 242 kts | 161° |
| 2026-05-08 09:34 | 57.21280 | -2.20422 | 1902 ft | 231 kts | 161° |
| 2026-05-08 09:34 | 57.19776 | -2.19218 | 2259 ft | 238 kts | 158° |
| 2026-05-08 09:34 | 57.18268 | -2.17898 | 2632 ft | 241 kts | 161° |
| 2026-05-08 09:34 | 57.16640 | -2.17456 | 2856 ft | 240 kts | 194° |
| 2026-05-08 09:35 | 57.15198 | -2.18954 | 2969 ft | 246 kts | 229° |
| 2026-05-08 09:35 | 57.14471 | -2.21778 | 3011 ft | 246 kts | 261° |
| 2026-05-08 09:35 | 57.14729 | -2.24827 | 3008 ft | 245 kts | 294° |
| 2026-05-08 09:35 | 57.15887 | -2.27103 | 3007 ft | 250 kts | 326° |
| 2026-05-08 09:36 | 57.17476 | -2.28401 | 3005 ft | 249 kts | 334° |
| 2026-05-08 09:36 | 57.19080 | -2.29567 | 2988 ft | 247 kts | 335° |
| 2026-05-08 09:36 | 57.20680 | -2.30676 | 3005 ft | 245 kts | 336° |
| 2026-05-08 09:36 | 57.22279 | -2.31727 | 2994 ft | 244 kts | 337° |
| 2026-05-08 09:37 | 57.23864 | -2.32732 | 2989 ft | 242 kts | 337° |
| 2026-05-08 09:37 | 57.25462 | -2.33742 | 3000 ft | 242 kts | 336° |
| 2026-05-08 09:37 | 57.27054 | -2.34741 | 3009 ft | 242 kts | 337° |
| 2026-05-08 09:37 | 57.28649 | -2.35763 | 3010 ft | 242 kts | 336° |
| 2026-05-08 09:38 | 57.30248 | -2.36788 | 3017 ft | 243 kts | 338° |
| 2026-05-08 09:38 | 57.31916 | -2.37229 | 3006 ft | 248 kts | 7° |
| 2026-05-08 09:38 | 57.33468 | -2.35873 | 3026 ft | 251 kts | 43° |
| 2026-05-08 09:38 | 57.34393 | -2.33161 | 3058 ft | 251 kts | 77° |
| 2026-05-08 09:39 | 57.34427 | -2.30000 | 2987 ft | 244 kts | 110° |
| 2026-05-08 09:39 | 57.33629 | -2.27461 | 2894 ft | 227 kts | 143° |
| 2026-05-08 09:39 | 57.32268 | -2.26225 | 2615 ft | 217 kts | 172° |
| 2026-05-08 09:39 | 57.30859 | -2.25701 | 2290 ft | 194 kts | 171° |
| 2026-05-08 09:40 | 57.29594 | -2.25143 | 2060 ft | 185 kts | 171° |
| 2026-05-08 09:40 | 57.28377 | -2.24628 | 1842 ft | 169 kts | 171° |
| 2026-05-08 09:40 | 57.27297 | -2.24165 | 1602 ft | 149 kts | 171° |
| 2026-05-08 09:40 | 57.26341 | -2.23723 | 1415 ft | 136 kts | 172° |
| 2026-05-08 09:41 | 57.25445 | -2.23313 | 1203 ft | 131 kts | 173° |
| 2026-05-08 09:41 | 57.24566 | -2.22825 | 973 ft | 134 kts | 167° |
| 2026-05-08 09:41 | 57.23704 | -2.22206 | 817 ft | 128 kts | 164° |
| 2026-05-08 09:41 | 57.22887 | -2.21647 | 679 ft | 123 kts | 169° |
| 2026-05-08 09:42 | 57.22071 | -2.21112 | 472 ft | 125 kts | 167° |
| 2026-05-08 09:42 | 57.21262 | -2.20547 | 326 ft | 124 kts | 165° |
| 2026-05-08 09:42 | 57.20491 | -2.19987 | 251 ft | 110 kts | 162° |
| 2026-05-08 09:42 | 57.19939 | -2.19587 | 250 ft | 55 kts | 158° |
| 2026-05-08 09:43 | 57.19716 | -2.19425 | 250 ft | 28 kts | 158° |
| 2026-05-08 09:43 | 57.19542 | -2.19298 | 247 ft | 26 kts | 158° |
| 2026-05-08 09:43 | 57.19435 | -2.19282 | 246 ft | 13 kts | 224° |
| 2026-05-08 09:43 | 57.19447 | -2.19407 | 247 ft | 10 kts | 320° |
| 2026-05-08 09:44 | 57.19496 | -2.19470 | 247 ft | 8 kts | 324° |
| 2026-05-08 09:44 | 57.19533 | -2.19531 | 247 ft | 7 kts | 317° |
| 2026-05-08 09:44 | 57.19582 | -2.19606 | 247 ft | 11 kts | 323° |
| 2026-05-08 09:44 | 57.19656 | -2.19707 | 247 ft | 15 kts | 332° |
| 2026-05-08 09:45 | 57.19768 | -2.19791 | 247 ft | 19 kts | 338° |
| 2026-05-08 09:45 | 57.19899 | -2.19918 | 247 ft | 23 kts | 318° |
| 2026-05-08 09:45 | 57.20025 | -2.20097 | 247 ft | 22 kts | 338° |
| 2026-05-08 09:45 | 57.20077 | -2.20204 | 247 ft | 8 kts | 244° |
| 2026-05-08 09:46 | 57.20065 | -2.20254 | 247 ft | 0 kts | 248° |
| 2026-05-08 09:46 | 57.20065 | -2.20253 | 247 ft | 0 kts | 248° |